• Join FlightAware (Why Join?)
  • Login
  • US Flag 
05:34AM EST


 

Airport Tracker/Info


-or-


 

Live Flight TrackerFlight Track Log ✈ UAL4695 ✈ 20-Apr-2013 ✈ KCHS - KEWR

Flight Track Log - Related Links

Times and Time Zones

All times are in EDT time to prevent confusion due to time zone crossing. See the UAL4695 flight status page for this flight to view local times or setup timezone preferences in your user account.

Time Position Orientation Groundspeed Altitude Reporting Facility
EDT Latitude Longitude Course Direction KTS MPH feet Rate Location/Type
05:37PM 32.9294 -80.0242 13° North 175 201 1,400  Level Jacksonville Center
05:38PM 32.9792 -80.0128 11° North 187 215 4,200 2,400 Climbing Jacksonville Center
05:39PM 33.0392 -79.9933 15° North 192 221 6,200 2,340 Climbing Jacksonville Center
05:40PM 33.2803 -79.9206 North  Level FlightAware Approximate
05:40PM 33.1119 -79.9736 13° North 226 260 8,900  Level Jacksonville Center
05:41PM 33.3769 -79.8813 North  Level FlightAware Approximate
05:41PM 33.1906 -79.9489 15° North 265 305 11,100  Level Jacksonville Center
05:42PM 33.4777 -79.8588 13° North  Level FlightAware Approximate
05:42PM 33.2778 -79.9261 12° North 295 339 12,800  Level Jacksonville Center
05:43PM 33.3772 -79.8978 13° North 330 380 14,200 1,500 Climbing Jacksonville Center
05:44PM 33.4808 -79.8694 13° North 361 415 15,900 1,560 Climbing Jacksonville Center
05:45PM 33.5867 -79.8408 13° North 374 430 17,400 1,500 Climbing Jacksonville Center
05:46PM 33.6944 -79.8097 14° North 384 442 18,900 1,500 Climbing Jacksonville Center
05:47PM 33.8022 -79.7783 14° North 390 449 20,500 1,320 Climbing Jacksonville Center
05:48PM 33.9142 -79.7469 13° North 395 455 21,600 960 Climbing Jacksonville Center
05:49PM 34.0322 -79.7153 13° North 411 473 22,500 900 Climbing Jacksonville Center
05:50PM 34.1586 -79.6781 14° North 436 502 23,400 900 Climbing Jacksonville Center
05:52PM 34.4019 -79.5664 21° North 482 555 25,200 900 Climbing Washington Center
05:53PM 34.5294 -79.4994 23° Northeast 492 566 26,100 900 Climbing Washington Center
05:54PM 34.6567 -79.4322 23° Northeast 497 572 27,100 1,020 Climbing Washington Center
05:55PM 34.7861 -79.3650 23° Northeast 497 572 28,200 1,080 Climbing Washington Center
05:56PM 34.9136 -79.2950 24° Northeast 497 572 29,300 1,020 Climbing Washington Center
05:57PM 35.0450 -79.2250 24° Northeast 497 572 30,300 1,020 Climbing Washington Center
05:58PM 35.1747 -79.1519 25° Northeast 507 583 31,400 1,020 Climbing Washington Center
05:59PM 35.3103 -79.0792 24° Northeast 507 583 32,400 1,020 Climbing Washington Center
06:00PM 35.4417 -79.0083 24° Northeast 507 583 33,500 960 Climbing Washington Center
06:01PM 35.5497 -78.9492 24° Northeast 507 583 34,400 720 Climbing Washington Center
06:02PM 35.6958 -78.8708 24° Northeast 507 583 35,000 300 Climbing Washington Center
06:03PM 35.8336 -78.7944 24° Northeast 518 596 35,000  Level Washington Center
06:04PM 35.9756 -78.7156 24° Northeast 535 616 35,000  Level Washington Center
06:05PM 36.1217 -78.6339 24° Northeast 555 639 35,000  Level Washington Center
06:06PM 36.2675 -78.5519 24° Northeast 565 650 35,000  Level Washington Center
06:07PM 36.4117 -78.4644 26° Northeast 571 657 35,000  Level Washington Center
06:08PM 36.5517 -78.3636 30° Northeast 577 664 35,000  Level Washington Center
06:09PM 36.6917 -78.2600 31° Northeast 577 664 35,000  Level Washington Center
06:10PM 36.8297 -78.1556 31° Northeast 583 671 35,000  Level Washington Center
06:11PM 36.9717 -78.0539 30° Northeast 583 671 35,000  Level Washington Center
06:12PM 37.1133 -77.9489 31° Northeast 583 671 35,000  Level Washington Center
06:13PM 37.2553 -77.8436 31° Northeast 583 671 35,000  Level Washington Center
06:14PM 37.3992 -77.7356 31° Northeast 588 677 35,000  Level Washington Center
06:15PM 37.5406 -77.6322 30° Northeast 588 677 35,000  Level Washington Center
06:16PM 37.6842 -77.5231 31° Northeast 590 679 35,000  Level Washington Center
06:17PM 37.8278 -77.4136 31° Northeast 590 679 35,000  Level Washington Center
06:18PM 37.9733 -77.3039 31° Northeast 595 685 35,000  Level Washington Center
06:19PM 38.1292 -77.1886 30° Northeast 595 685 35,000  Level Washington Center
06:20PM 38.2597 -77.0883 31° Northeast 595 685 35,000  Level Washington Center
06:21PM 38.4178 -76.9669 31° Northeast 595 685 35,000  Level Washington Center
06:22PM 38.5628 -76.8556 31° Northeast 600 690 35,000  Level Washington Center
06:23PM 38.7036 -76.7383 33° Northeast 600 690 35,000  Level Washington Center
06:24PM 38.8319 -76.6017 40° Northeast 600 690 35,000 -300 Level Washington Center
06:25PM 38.9456 -76.4669 43° Northeast 600 690 34,500 -1,860 Descending Washington Center
06:26PM 39.0675 -76.3242 42° Northeast 600 690 31,300 -3,300 Descending Washington Center
06:27PM 39.1892 -76.1833 42° Northeast 595 685 28,000 -2,160 Descending Washington Center
06:28PM 39.3022 -76.0528 42° Northeast 570 656 27,000 -1,200 Descending Washington Center
06:29PM 39.4153 -75.9219 42° Northeast 550 633 25,600 -1,020 Descending Washington Center
06:30PM 39.5258 -75.7906 42° Northeast 537 618 25,000 -900 Descending Washington Center
06:31PM 39.6344 -75.6617 42° Northeast 537 618 23,800 -1,980 Descending Washington Center
06:32PM 39.7364 -75.5403 42° Northeast 517 595 21,100 -2,640 Descending Washington Center
06:33PM 39.8364 -75.4211 42° Northeast 497 572 18,600 -2,400 Descending Washington Center
06:34PM 39.9403 -75.2967 43° Northeast 478 550 16,300 -2,400 Descending Washington Center
06:35PM 40.0275 -75.1850 44° Northeast 454 522 13,800 -2,280 Descending Washington Center
06:36PM 40.1500 -75.0500 40° Northeast 405 466 10,900 -1,680 Descending New York TRACON
06:37PM 40.2167 -74.9500 49° Northeast 339 390 9,900 -1,320 Descending New York TRACON
06:38PM 40.2667 -74.8833 45° Northeast 285 328 8,300 -1,080 Descending New York TRACON
06:39PM 40.3167 -74.8167 45° Northeast 276 318 7,800 -780 Descending New York TRACON
06:40PM 40.3667 -74.7500 45° Northeast 267 307 6,900 -960 Descending New York TRACON
06:41PM 40.4167 -74.6667 52° Northeast 278 320 6,000 -540 Descending New York TRACON
06:42PM 40.5000 -74.6500 North 257 296 5,900  Descending New York TRACON
06:43PM 40.5667 -74.6333 11° North 260 299 6,000  Climbing New York TRACON
06:44PM 40.6333 -74.6167 11° North 253 291 6,000  Level New York TRACON
06:45PM 40.7167 -74.5833 17° North 261 300 6,000 -360 Level New York TRACON
06:46PM 40.7667 -74.5333 37° Northeast 261 300 5,300 -540 Descending New York TRACON
06:47PM 40.8167 -74.4667 45° Northeast 266 306 5,000 -180 Descending New York TRACON
06:48PM 40.8667 -74.4000 45° Northeast 267 307 5,000 -120 Level New York TRACON
06:49PM 40.9000 -74.3167 62° Northeast 279 321 4,800 -540 Descending New York TRACON
06:50PM 40.9167 -74.2000 79° East 275 316 4,000 -780 Descending New York TRACON
06:51PM 40.8833 -74.1167 118° Southeast 274 315 3,200 -540 Descending New York TRACON
06:52PM 40.8333 -74.0833 153° Southeast 224 258 3,000 -240 Descending New York TRACON